sensor_id;sensor_type;location;lat;lon;timestamp;pressure;altitude;pressure_sealevel;temperature;humidity
26436;BME280;15351;52.408;16.826;2023-05-19T00:00:18;101994.33;;;13.62;53.92
26436;BME280;15351;52.408;16.826;2023-05-19T00:03:33;101992.29;;;13.63;53.91
26436;BME280;15351;52.408;16.826;2023-05-19T00:06:32;101989.73;;;13.63;53.93
26436;BME280;15351;52.408;16.826;2023-05-19T00:09:25;101983.73;;;13.59;53.76
26436;BME280;15351;52.408;16.826;2023-05-19T00:12:06;101982.02;;;13.55;53.93
26436;BME280;15351;52.408;16.826;2023-05-19T00:14:33;101983.25;;;13.54;54.09
26436;BME280;15351;52.408;16.826;2023-05-19T00:17:21;101981.80;;;13.50;53.88
26436;BME280;15351;52.408;16.826;2023-05-19T00:19:48;101984.23;;;13.48;53.94
26436;BME280;15351;52.408;16.826;2023-05-19T00:22:16;101978.48;;;13.44;54.11
26436;BME280;15351;52.408;16.826;2023-05-19T00:24:42;101975.09;;;13.41;54.02
26436;BME280;15351;52.408;16.826;2023-05-19T00:27:19;101974.60;;;13.38;54.01
26436;BME280;15351;52.408;16.826;2023-05-19T00:29:55;101973.77;;;13.34;54.12
26436;BME280;15351;52.408;16.826;2023-05-19T00:32:21;101970.88;;;13.31;54.18
26436;BME280;15351;52.408;16.826;2023-05-19T00:34:48;101970.63;;;13.30;54.18
26436;BME280;15351;52.408;16.826;2023-05-19T00:37:20;101966.45;;;13.26;54.47
26436;BME280;15351;52.408;16.826;2023-05-19T00:39:47;101968.49;;;13.27;54.52
26436;BME280;15351;52.408;16.826;2023-05-19T00:42:13;101968.54;;;13.29;54.71
26436;BME280;15351;52.408;16.826;2023-05-19T00:44:41;101968.20;;;13.29;54.52
26436;BME280;15351;52.408;16.826;2023-05-19T00:47:11;101963.13;;;13.25;54.50
26436;BME280;15351;52.408;16.826;2023-05-19T00:49:46;101964.64;;;13.25;54.72
26436;BME280;15351;52.408;16.826;2023-05-19T00:52:20;101970.65;;;13.23;54.58
26436;BME280;15351;52.408;16.826;2023-05-19T00:55:13;101969.22;;;13.21;54.86
26436;BME280;15351;52.408;16.826;2023-05-19T00:58:19;101967.64;;;13.19;54.90
26436;BME280;15351;52.408;16.826;2023-05-19T01:01:08;101964.48;;;13.16;55.00
26436;BME280;15351;52.408;16.826;2023-05-19T01:04:11;101966.16;;;13.14;55.13
26436;BME280;15351;52.408;16.826;2023-05-19T01:06:47;101965.23;;;13.09;55.30
26436;BME280;15351;52.408;16.826;2023-05-19T01:09:31;101965.02;;;13.07;55.11
26436;BME280;15351;52.408;16.826;2023-05-19T01:12:25;101967.02;;;13.05;55.31
26436;BME280;15351;52.408;16.826;2023-05-19T01:15:28;101966.44;;;13.04;55.31
26436;BME280;15351;52.408;16.826;2023-05-19T01:21:46;101971.55;;;12.99;55.62
26436;BME280;15351;52.408;16.826;2023-05-19T01:27:53;101976.41;;;12.90;55.75
26436;BME280;15351;52.408;16.826;2023-05-19T01:30:28;101980.86;;;12.89;55.86
26436;BME280;15351;52.408;16.826;2023-05-19T01:33:00;101981.36;;;12.88;56.03
26436;BME280;15351;52.408;16.826;2023-05-19T01:35:31;101984.88;;;12.87;56.11
26436;BME280;15351;52.408;16.826;2023-05-19T01:37:59;101986.35;;;12.88;56.22
26436;BME280;15351;52.408;16.826;2023-05-19T01:40:26;101987.21;;;12.87;56.28
26436;BME280;15351;52.408;16.826;2023-05-19T01:42:58;101990.55;;;12.86;56.24
26436;BME280;15351;52.408;16.826;2023-05-19T01:45:27;101988.17;;;12.85;56.33
26436;BME280;15351;52.408;16.826;2023-05-19T01:48:01;101989.94;;;12.83;56.45
26436;BME280;15351;52.408;16.826;2023-05-19T01:50:34;101994.51;;;12.81;56.47
26436;BME280;15351;52.408;16.826;2023-05-19T01:53:22;101994.33;;;12.78;56.63
26436;BME280;15351;52.408;16.826;2023-05-19T01:55:59;101999.33;;;12.77;56.52
26436;BME280;15351;52.408;16.826;2023-05-19T02:01:47;101999.80;;;12.74;56.91
26436;BME280;15351;52.408;16.826;2023-05-19T02:04:28;102000.43;;;12.69;56.85
26436;BME280;15351;52.408;16.826;2023-05-19T02:07:31;101995.57;;;12.67;56.82
26436;BME280;15351;52.408;16.826;2023-05-19T02:10:22;101995.31;;;12.64;56.98
26436;BME280;15351;52.408;16.826;2023-05-19T02:12:58;101993.52;;;12.62;57.25
26436;BME280;15351;52.408;16.826;2023-05-19T02:15:29;101991.34;;;12.57;57.41
26436;BME280;15351;52.408;16.826;2023-05-19T02:18:00;101990.29;;;12.54;57.36
26436;BME280;15351;52.408;16.826;2023-05-19T02:20:46;101994.96;;;12.52;57.63
26436;BME280;15351;52.408;16.826;2023-05-19T02:23:49;101989.86;;;12.54;57.74
26436;BME280;15351;52.408;16.826;2023-05-19T02:26:37;101991.95;;;12.53;57.80
26436;BME280;15351;52.408;16.826;2023-05-19T02:29:12;101992.73;;;12.54;57.89
26436;BME280;15351;52.408;16.826;2023-05-19T02:31:51;101991.41;;;12.53;57.93
26436;BME280;15351;52.408;16.826;2023-05-19T02:34:28;101989.57;;;12.53;58.01
26436;BME280;15351;52.408;16.826;2023-05-19T02:37:39;101988.02;;;12.53;58.10
26436;BME280;15351;52.408;16.826;2023-05-19T02:40:30;101985.86;;;12.51;57.89
26436;BME280;15351;52.408;16.826;2023-05-19T02:42:59;101987.77;;;12.48;58.05
26436;BME280;15351;52.408;16.826;2023-05-19T02:45:25;101984.08;;;12.49;58.18
26436;BME280;15351;52.408;16.826;2023-05-19T02:47:56;101984.73;;;12.49;58.26
26436;BME280;15351;52.408;16.826;2023-05-19T02:50:24;101985.16;;;12.49;58.23
26436;BME280;15351;52.408;16.826;2023-05-19T02:53:03;101980.40;;;12.48;58.29
26436;BME280;15351;52.408;16.826;2023-05-19T02:55:45;101984.36;;;12.50;58.41
26436;BME280;15351;52.408;16.826;2023-05-19T02:58:17;101985.55;;;12.50;58.62
26436;BME280;15351;52.408;16.826;2023-05-19T03:00:43;101981.76;;;12.47;58.50
26436;BME280;15351;52.408;16.826;2023-05-19T03:03:10;101982.55;;;12.46;58.42
26436;BME280;15351;52.408;16.826;2023-05-19T03:05:44;101982.15;;;12.43;58.73
26436;BME280;15351;52.408;16.826;2023-05-19T03:08:24;101979.18;;;12.40;58.63
26436;BME280;15351;52.408;16.826;2023-05-19T03:11:11;101980.30;;;12.40;58.88
26436;BME280;15351;52.408;16.826;2023-05-19T03:14:03;101975.09;;;12.39;58.91
26436;BME280;15351;52.408;16.826;2023-05-19T03:16:49;101979.47;;;12.42;58.99
26436;BME280;15351;52.408;16.826;2023-05-19T03:19:38;101977.34;;;12.42;59.09
26436;BME280;15351;52.408;16.826;2023-05-19T03:22:18;101975.31;;;12.43;59.16
26436;BME280;15351;52.408;16.826;2023-05-19T03:25:12;101974.60;;;12.43;59.41
26436;BME280;15351;52.408;16.826;2023-05-19T03:27:54;101970.13;;;12.46;59.52
26436;BME280;15351;52.408;16.826;2023-05-19T03:34:08;101971.66;;;12.52;59.35
26436;BME280;15351;52.408;16.826;2023-05-19T03:36:51;101973.84;;;12.54;59.45
26436;BME280;15351;52.408;16.826;2023-05-19T03:39:32;101973.69;;;12.55;59.57
26436;BME280;15351;52.408;16.826;2023-05-19T03:42:37;101973.29;;;12.56;59.38
26436;BME280;15351;52.408;16.826;2023-05-19T03:45:12;101972.75;;;12.56;59.68
26436;BME280;15351;52.408;16.826;2023-05-19T03:47:39;101974.19;;;12.57;59.62
26436;BME280;15351;52.408;16.826;2023-05-19T03:50:38;101974.23;;;12.60;59.93
26436;BME280;15351;52.408;16.826;2023-05-19T03:53:26;101971.52;;;12.64;60.04
26436;BME280;15351;52.408;16.826;2023-05-19T03:56:05;101979.89;;;12.67;59.95
26436;BME280;15351;52.408;16.826;2023-05-19T03:58:32;101982.27;;;12.70;60.05
26436;BME280;15351;52.408;16.826;2023-05-19T04:00:59;101978.68;;;12.70;59.83
26436;BME280;15351;52.408;16.826;2023-05-19T04:03:25;101982.70;;;12.71;60.08
26436;BME280;15351;52.408;16.826;2023-05-19T04:05:54;101980.73;;;12.75;60.32
26436;BME280;15351;52.408;16.826;2023-05-19T04:08:26;101979.58;;;12.77;60.09
26436;BME280;15351;52.408;16.826;2023-05-19T04:11:30;101980.89;;;12.77;60.10
26436;BME280;15351;52.408;16.826;2023-05-19T04:14:19;101980.02;;;12.80;60.63
26436;BME280;15351;52.408;16.826;2023-05-19T04:20:13;101984.77;;;12.93;60.43
26436;BME280;15351;52.408;16.826;2023-05-19T04:22:39;101981.27;;;12.97;60.35
26436;BME280;15351;52.408;16.826;2023-05-19T04:25:07;101985.13;;;13.01;60.33
26436;BME280;15351;52.408;16.826;2023-05-19T04:27:34;101987.55;;;13.02;60.52
26436;BME280;15351;52.408;16.826;2023-05-19T04:30:07;101981.43;;;13.03;60.45
26436;BME280;15351;52.408;16.826;2023-05-19T04:32:34;101986.05;;;13.05;60.43
26436;BME280;15351;52.408;16.826;2023-05-19T04:35:03;101983.98;;;13.09;60.74
26436;BME280;15351;52.408;16.826;2023-05-19T04:37:29;101980.89;;;13.13;60.72
26436;BME280;15351;52.408;16.826;2023-05-19T04:39:56;101987.27;;;13.20;60.51
26436;BME280;15351;52.408;16.826;2023-05-19T04:42:26;101989.08;;;13.21;60.59
26436;BME280;15351;52.408;16.826;2023-05-19T04:45:04;101986.92;;;13.21;60.45
26436;BME280;15351;52.408;16.826;2023-05-19T04:47:46;101985.82;;;13.28;60.24
26436;BME280;15351;52.408;16.826;2023-05-19T04:50:27;101982.86;;;13.32;60.31
26436;BME280;15351;52.408;16.826;2023-05-19T04:53:04;101985.92;;;13.35;60.28
26436;BME280;15351;52.408;16.826;2023-05-19T04:55:47;101989.40;;;13.39;60.26
26436;BME280;15351;52.408;16.826;2023-05-19T04:58:14;101989.75;;;13.40;60.42
26436;BME280;15351;52.408;16.826;2023-05-19T05:00:44;101988.06;;;13.46;60.64
26436;BME280;15351;52.408;16.826;2023-05-19T05:03:11;101990.17;;;13.51;60.43
26436;BME280;15351;52.408;16.826;2023-05-19T05:05:39;101989.04;;;13.53;60.00
26436;BME280;15351;52.408;16.826;2023-05-19T05:11:35;101991.31;;;13.58;60.03
26436;BME280;15351;52.408;16.826;2023-05-19T05:14:36;101995.63;;;13.62;60.00
26436;BME280;15351;52.408;16.826;2023-05-19T05:20:44;101996.80;;;13.69;60.10
26436;BME280;15351;52.408;16.826;2023-05-19T05:23:26;101994.28;;;13.72;59.97
26436;BME280;15351;52.408;16.826;2023-05-19T05:26:21;101994.29;;;13.74;60.14
26436;BME280;15351;52.408;16.826;2023-05-19T05:29:18;101996.26;;;13.79;60.31
26436;BME280;15351;52.408;16.826;2023-05-19T05:35:54;101993.54;;;13.96;60.18
26436;BME280;15351;52.408;16.826;2023-05-19T05:38:26;101991.23;;;14.04;59.94
26436;BME280;15351;52.408;16.826;2023-05-19T05:45:23;101984.84;;;14.15;59.65
26436;BME280;15351;52.408;16.826;2023-05-19T05:48:41;101982.53;;;14.21;59.69
26436;BME280;15351;52.408;16.826;2023-05-19T06:09:22;101989.40;;;14.77;59.83
26436;BME280;15351;52.408;16.826;2023-05-19T06:11:50;101988.80;;;14.83;59.62
26436;BME280;15351;52.408;16.826;2023-05-19T06:14:35;101994.20;;;14.90;59.44
26436;BME280;15351;52.408;16.826;2023-05-19T06:17:47;101993.23;;;14.98;59.58
26436;BME280;15351;52.408;16.826;2023-05-19T06:20:20;101995.89;;;15.06;60.12
26436;BME280;15351;52.408;16.826;2023-05-19T06:23:10;101995.27;;;15.12;59.59
26436;BME280;15351;52.408;16.826;2023-05-19T06:26:05;101997.39;;;15.17;59.45
26436;BME280;15351;52.408;16.826;2023-05-19T06:31:59;101997.79;;;15.24;59.52
26436;BME280;15351;52.408;16.826;2023-05-19T06:35:03;102002.31;;;15.31;58.85
26436;BME280;15351;52.408;16.826;2023-05-19T06:41:35;101998.77;;;15.43;58.90
26436;BME280;15351;52.408;16.826;2023-05-19T06:44:22;101997.30;;;15.50;59.16
26436;BME280;15351;52.408;16.826;2023-05-19T06:47:29;101998.95;;;15.54;58.87
26436;BME280;15351;52.408;16.826;2023-05-19T06:50:38;101998.84;;;15.61;58.60
26436;BME280;15351;52.408;16.826;2023-05-19T06:53:57;102002.36;;;15.70;58.40
26436;BME280;15351;52.408;16.826;2023-05-19T06:57:05;101998.58;;;15.74;58.09
26436;BME280;15351;52.408;16.826;2023-05-19T07:00:19;101995.66;;;15.78;58.17
26436;BME280;15351;52.408;16.826;2023-05-19T07:06:48;102000.38;;;15.93;58.39
26436;BME280;15351;52.408;16.826;2023-05-19T07:09:35;102005.73;;;15.99;58.12
26436;BME280;15351;52.408;16.826;2023-05-19T07:12:22;102007.46;;;16.00;57.48
26436;BME280;15351;52.408;16.826;2023-05-19T07:15:40;102008.93;;;16.00;57.22
26436;BME280;15351;52.408;16.826;2023-05-19T07:21:25;102005.66;;;16.01;56.88
26436;BME280;15351;52.408;16.826;2023-05-19T07:26:49;101998.97;;;16.09;56.73
26436;BME280;15351;52.408;16.826;2023-05-19T07:29:51;101993.63;;;16.14;57.16
26436;BME280;15351;52.408;16.826;2023-05-19T07:35:54;101993.88;;;16.35;57.24
26436;BME280;15351;52.408;16.826;2023-05-19T07:39:12;101993.66;;;16.45;57.54
26436;BME280;15351;52.408;16.826;2023-05-19T07:42:37;101997.56;;;16.52;57.28
26436;BME280;15351;52.408;16.826;2023-05-19T07:45:43;101998.52;;;16.54;56.88
26436;BME280;15351;52.408;16.826;2023-05-19T07:51:37;101986.67;;;16.63;56.74
26436;BME280;15351;52.408;16.826;2023-05-19T07:54:35;101982.48;;;16.66;56.44
26436;BME280;15351;52.408;16.826;2023-05-19T07:57:47;101977.40;;;16.68;56.92
26436;BME280;15351;52.408;16.826;2023-05-19T08:11:08;101976.38;;;17.10;56.12
26436;BME280;15351;52.408;16.826;2023-05-19T08:31:42;101978.53;;;17.61;54.24
26436;BME280;15351;52.408;16.826;2023-05-19T08:38:15;101984.58;;;17.64;54.39
26436;BME280;15351;52.408;16.826;2023-05-19T08:48:53;101980.81;;;17.62;53.76
26436;BME280;15351;52.408;16.826;2023-05-19T09:05:47;101977.80;;;17.82;52.36
26436;BME280;15351;52.408;16.826;2023-05-19T09:08:38;101976.40;;;17.83;51.81
26436;BME280;15351;52.408;16.826;2023-05-19T09:11:16;101969.42;;;17.76;51.54
26436;BME280;15351;52.408;16.826;2023-05-19T09:21:00;101968.05;;;17.86;52.42
26436;BME280;15351;52.408;16.826;2023-05-19T09:24:28;101962.48;;;17.93;52.61
26436;BME280;15351;52.408;16.826;2023-05-19T09:27:32;101965.83;;;18.06;52.68
26436;BME280;15351;52.408;16.826;2023-05-19T09:34:38;101963.79;;;18.21;52.02
26436;BME280;15351;52.408;16.826;2023-05-19T09:38:07;101967.50;;;18.28;51.94
26436;BME280;15351;52.408;16.826;2023-05-19T09:42:26;101964.94;;;18.28;51.56
26436;BME280;15351;52.408;16.826;2023-05-19T09:48:06;101959.06;;;18.33;50.73
26436;BME280;15351;52.408;16.826;2023-05-19T09:54:49;101962.98;;;18.30;50.14
26436;BME280;15351;52.408;16.826;2023-05-19T10:01:23;101960.23;;;18.25;50.29
26436;BME280;15351;52.408;16.826;2023-05-19T10:11:16;101960.01;;;18.08;50.18
26436;BME280;15351;52.408;16.826;2023-05-19T10:14:04;101957.23;;;18.02;50.33
26436;BME280;15351;52.408;16.826;2023-05-19T10:17:17;101960.00;;;17.98;50.28
26436;BME280;15351;52.408;16.826;2023-05-19T10:20:15;101957.74;;;17.90;50.06
26436;BME280;15351;52.408;16.826;2023-05-19T10:26:27;101956.61;;;17.84;50.06
26436;BME280;15351;52.408;16.826;2023-05-19T10:32:22;101955.42;;;17.84;50.63
26436;BME280;15351;52.408;16.826;2023-05-19T10:36:04;101959.13;;;17.83;51.21
26436;BME280;15351;52.408;16.826;2023-05-19T10:39:17;101959.27;;;17.79;50.96
26436;BME280;15351;52.408;16.826;2023-05-19T10:45:12;101963.20;;;17.66;50.72
26436;BME280;15351;52.408;16.826;2023-05-19T10:48:09;101967.54;;;17.65;51.16
26436;BME280;15351;52.408;16.826;2023-05-19T10:50:56;101966.52;;;17.61;50.79
26436;BME280;15351;52.408;16.826;2023-05-19T10:53:43;101961.95;;;17.53;50.64
26436;BME280;15351;52.408;16.826;2023-05-19T10:56:32;101960.77;;;17.42;50.75
26436;BME280;15351;52.408;16.826;2023-05-19T10:59:07;101963.70;;;17.39;50.70
26436;BME280;15351;52.408;16.826;2023-05-19T11:05:13;101967.05;;;17.25;50.61
26436;BME280;15351;52.408;16.826;2023-05-19T11:11:22;101962.56;;;17.18;51.39
26436;BME280;15351;52.408;16.826;2023-05-19T11:17:31;101959.65;;;17.24;51.74
26436;BME280;15351;52.408;16.826;2023-05-19T11:23:32;101959.00;;;17.28;51.63
26436;BME280;15351;52.408;16.826;2023-05-19T11:33:35;101945.20;;;17.44;52.55
26436;BME280;15351;52.408;16.826;2023-05-19T11:36:20;101942.70;;;17.57;52.51
26436;BME280;15351;52.408;16.826;2023-05-19T11:39:10;101939.17;;;17.68;52.36
26436;BME280;15351;52.408;16.826;2023-05-19T11:41:55;101933.80;;;17.79;52.41
26436;BME280;15351;52.408;16.826;2023-05-19T11:45:01;101933.92;;;17.85;52.52
26436;BME280;15351;52.408;16.826;2023-05-19T11:48:08;101935.27;;;17.88;52.38
26436;BME280;15351;52.408;16.826;2023-05-19T11:54:27;101942.23;;;17.95;52.13
26436;BME280;15351;52.408;16.826;2023-05-19T11:57:26;101943.25;;;17.96;51.95
26436;BME280;15351;52.408;16.826;2023-05-19T12:07:19;101945.16;;;18.07;51.85
26436;BME280;15351;52.408;16.826;2023-05-19T12:10:14;101947.80;;;18.12;52.14
26436;BME280;15351;52.408;16.826;2023-05-19T12:13:04;101946.79;;;18.16;52.06
26436;BME280;15351;52.408;16.826;2023-05-19T12:15:41;101953.08;;;18.15;51.78
26436;BME280;15351;52.408;16.826;2023-05-19T12:18:42;101956.56;;;18.10;51.36
26436;BME280;15351;52.408;16.826;2023-05-19T12:21:24;101952.81;;;18.04;51.48
26436;BME280;15351;52.408;16.826;2023-05-19T12:24:12;101946.14;;;17.99;51.57
26436;BME280;15351;52.408;16.826;2023-05-19T12:27:21;101947.54;;;17.94;51.77
26436;BME280;15351;52.408;16.826;2023-05-19T12:30:26;101944.88;;;17.86;51.42
26436;BME280;15351;52.408;16.826;2023-05-19T12:33:27;101946.59;;;17.86;51.51
26436;BME280;15351;52.408;16.826;2023-05-19T12:36:24;101938.41;;;17.90;51.44
26436;BME280;15351;52.408;16.826;2023-05-19T12:44:56;101936.05;;;17.95;51.17
26436;BME280;15351;52.408;16.826;2023-05-19T12:47:36;101932.26;;;17.92;50.83
26436;BME280;15351;52.408;16.826;2023-05-19T12:50:16;101934.06;;;17.88;50.39
26436;BME280;15351;52.408;16.826;2023-05-19T12:53:15;101931.82;;;17.92;51.14
26436;BME280;15351;52.408;16.826;2023-05-19T12:55:45;101936.95;;;17.94;51.34
26436;BME280;15351;52.408;16.826;2023-05-19T12:58:24;101941.61;;;17.93;51.18
26436;BME280;15351;52.408;16.826;2023-05-19T13:00:57;101935.92;;;17.91;51.28
26436;BME280;15351;52.408;16.826;2023-05-19T13:12:57;101928.45;;;17.84;51.73
26436;BME280;15351;52.408;16.826;2023-05-19T13:18:32;101931.25;;;17.79;51.86
26436;BME280;15351;52.408;16.826;2023-05-19T13:21:01;101936.17;;;17.77;51.95
26436;BME280;15351;52.408;16.826;2023-05-19T13:26:52;101940.37;;;17.74;51.88
26436;BME280;15351;52.408;16.826;2023-05-19T13:33:58;101930.29;;;17.70;52.53
26436;BME280;15351;52.408;16.826;2023-05-19T13:40:43;101928.39;;;17.71;52.75
26436;BME280;15351;52.408;16.826;2023-05-19T13:44:24;101934.13;;;17.75;52.68
26436;BME280;15351;52.408;16.826;2023-05-19T13:50:14;101926.95;;;17.81;52.38
26436;BME280;15351;52.408;16.826;2023-05-19T13:56:12;101920.33;;;17.82;52.39
26436;BME280;15351;52.408;16.826;2023-05-19T13:58:51;101917.10;;;17.80;52.43
26436;BME280;15351;52.408;16.826;2023-05-19T14:01:23;101920.50;;;17.80;51.92
26436;BME280;15351;52.408;16.826;2023-05-19T14:07:13;101914.89;;;17.79;52.34
26436;BME280;15351;52.408;16.826;2023-05-19T14:09:49;101909.68;;;17.75;52.31
26436;BME280;15351;52.408;16.826;2023-05-19T14:12:30;101910.05;;;17.75;52.41
26436;BME280;15351;52.408;16.826;2023-05-19T14:15:01;101912.90;;;17.74;52.84
26436;BME280;15351;52.408;16.826;2023-05-19T14:17:42;101915.80;;;17.71;53.02
26436;BME280;15351;52.408;16.826;2023-05-19T14:20:44;101911.22;;;17.69;53.57
26436;BME280;15351;52.408;16.826;2023-05-19T14:24:07;101916.16;;;17.67;53.62
26436;BME280;15351;52.408;16.826;2023-05-19T14:30:29;101918.64;;;17.65;54.09
26436;BME280;15351;52.408;16.826;2023-05-19T14:33:35;101921.20;;;17.61;54.21
26436;BME280;15351;52.408;16.826;2023-05-19T14:36:49;101920.23;;;17.58;54.38
26436;BME280;15351;52.408;16.826;2023-05-19T14:39:46;101916.09;;;17.54;54.86
26436;BME280;15351;52.408;16.826;2023-05-19T15:07:45;101947.69;;;17.27;55.49
26436;BME280;15351;52.408;16.826;2023-05-19T15:10:37;101945.77;;;17.22;55.41
26436;BME280;15351;52.408;16.826;2023-05-19T15:14:15;101943.61;;;17.20;55.49
26436;BME280;15351;52.408;16.826;2023-05-19T15:20:28;101943.81;;;17.14;55.82
26436;BME280;15351;52.408;16.826;2023-05-19T15:22:57;101943.02;;;17.09;55.56
26436;BME280;15351;52.408;16.826;2023-05-19T15:25:23;101934.11;;;17.01;55.62
26436;BME280;15351;52.408;16.826;2023-05-19T15:27:50;101938.25;;;16.94;56.26
26436;BME280;15351;52.408;16.826;2023-05-19T15:30:16;101936.38;;;16.92;56.20
26436;BME280;15351;52.408;16.826;2023-05-19T15:32:43;101935.39;;;16.89;56.00
26436;BME280;15351;52.408;16.826;2023-05-19T15:35:48;101936.65;;;16.83;56.27
26436;BME280;15351;52.408;16.826;2023-05-19T15:38:20;101937.83;;;16.75;56.65
26436;BME280;15351;52.408;16.826;2023-05-19T15:40:47;101939.42;;;16.72;56.66
26436;BME280;15351;52.408;16.826;2023-05-19T15:43:17;101938.45;;;16.70;57.01
26436;BME280;15351;52.408;16.826;2023-05-19T15:46:05;101937.91;;;16.65;56.98
26436;BME280;15351;52.408;16.826;2023-05-19T15:49:28;101934.31;;;16.62;57.25
26436;BME280;15351;52.408;16.826;2023-05-19T15:52:31;101932.83;;;16.58;57.58
26436;BME280;15351;52.408;16.826;2023-05-19T15:55:32;101932.06;;;16.53;57.81
26436;BME280;15351;52.408;16.826;2023-05-19T15:58:26;101933.84;;;16.51;58.37
26436;BME280;15351;52.408;16.826;2023-05-19T16:00:53;101934.06;;;16.49;58.34
26436;BME280;15351;52.408;16.826;2023-05-19T16:03:20;101937.33;;;16.49;58.43
26436;BME280;15351;52.408;16.826;2023-05-19T16:12:22;101932.36;;;16.48;58.97
26436;BME280;15351;52.408;16.826;2023-05-19T16:15:11;101933.45;;;16.48;59.24
26436;BME280;15351;52.408;16.826;2023-05-19T16:18:01;101935.19;;;16.49;59.14
26436;BME280;15351;52.408;16.826;2023-05-19T16:24:11;101930.55;;;16.48;58.99
26436;BME280;15351;52.408;16.826;2023-05-19T16:27:03;101931.08;;;16.49;59.20
26436;BME280;15351;52.408;16.826;2023-05-19T16:29:52;101933.54;;;16.46;59.46
26436;BME280;15351;52.408;16.826;2023-05-19T16:32:37;101927.64;;;16.42;59.74
26436;BME280;15351;52.408;16.826;2023-05-19T16:35:14;101926.46;;;16.38;60.06
26436;BME280;15351;52.408;16.826;2023-05-19T16:37:52;101918.61;;;16.36;59.99
26436;BME280;15351;52.408;16.826;2023-05-19T16:40:26;101922.58;;;16.40;60.42
26436;BME280;15351;52.408;16.826;2023-05-19T16:43:43;101919.09;;;16.45;60.39
26436;BME280;15351;52.408;16.826;2023-05-19T16:46:42;101923.67;;;16.48;60.38
26436;BME280;15351;52.408;16.826;2023-05-19T16:49:08;101924.79;;;16.51;59.96
26436;BME280;15351;52.408;16.826;2023-05-19T16:51:38;101926.52;;;16.52;60.35
26436;BME280;15351;52.408;16.826;2023-05-19T16:54:34;101927.31;;;16.49;60.26
26436;BME280;15351;52.408;16.826;2023-05-19T16:57:55;101924.55;;;16.44;60.35
26436;BME280;15351;52.408;16.826;2023-05-19T17:00:25;101923.02;;;16.40;60.65
26436;BME280;15351;52.408;16.826;2023-05-19T17:03:24;101922.10;;;16.40;60.75
26436;BME280;15351;52.408;16.826;2023-05-19T17:06:09;101922.95;;;16.40;60.71
26436;BME280;15351;52.408;16.826;2023-05-19T17:08:40;101918.65;;;16.40;60.68
26436;BME280;15351;52.408;16.826;2023-05-19T17:11:38;101919.90;;;16.37;60.54
26436;BME280;15351;52.408;16.826;2023-05-19T17:15:11;101910.94;;;16.31;60.73
26436;BME280;15351;52.408;16.826;2023-05-19T17:18:50;101918.63;;;16.33;60.59
26436;BME280;15351;52.408;16.826;2023-05-19T17:25:52;101913.00;;;16.23;60.74
26436;BME280;15351;52.408;16.826;2023-05-19T17:28:35;101912.04;;;16.19;60.98
26436;BME280;15351;52.408;16.826;2023-05-19T17:36:11;101914.05;;;16.19;61.08
26436;BME280;15351;52.408;16.826;2023-05-19T17:39:10;101914.73;;;16.19;61.33
26436;BME280;15351;52.408;16.826;2023-05-19T17:45:23;101912.48;;;16.17;61.29
26436;BME280;15351;52.408;16.826;2023-05-19T17:51:48;101917.73;;;16.13;61.59
26436;BME280;15351;52.408;16.826;2023-05-19T17:55:00;101924.55;;;16.12;61.45
26436;BME280;15351;52.408;16.826;2023-05-19T18:01:09;101921.33;;;16.09;61.47
26436;BME280;15351;52.408;16.826;2023-05-19T18:04:23;101924.66;;;16.03;61.90
26436;BME280;15351;52.408;16.826;2023-05-19T18:07:55;101926.06;;;15.99;61.94
26436;BME280;15351;52.408;16.826;2023-05-19T18:11:20;101914.33;;;15.89;62.34
26436;BME280;15351;52.408;16.826;2023-05-19T18:13:58;101920.92;;;15.93;62.65
26436;BME280;15351;52.408;16.826;2023-05-19T18:16:52;101927.52;;;15.94;62.55
26436;BME280;15351;52.408;16.826;2023-05-19T18:19:19;101928.17;;;15.88;62.47
26436;BME280;15351;52.408;16.826;2023-05-19T18:25:48;101930.77;;;15.87;63.05
26436;BME280;15351;52.408;16.826;2023-05-19T18:28:33;101933.98;;;15.92;63.10
26436;BME280;15351;52.408;16.826;2023-05-19T18:31:02;101932.27;;;15.96;63.19
26436;BME280;15351;52.408;16.826;2023-05-19T18:33:29;101934.54;;;15.96;62.85
26436;BME280;15351;52.408;16.826;2023-05-19T18:35:56;101938.31;;;15.96;62.70
26436;BME280;15351;52.408;16.826;2023-05-19T18:38:26;101937.77;;;15.97;62.77
26436;BME280;15351;52.408;16.826;2023-05-19T18:40:53;101936.84;;;15.92;63.02
26436;BME280;15351;52.408;16.826;2023-05-19T18:43:22;101941.01;;;15.89;62.94
26436;BME280;15351;52.408;16.826;2023-05-19T18:45:49;101937.95;;;15.86;62.98
26436;BME280;15351;52.408;16.826;2023-05-19T18:48:23;101931.52;;;15.80;63.35
26436;BME280;15351;52.408;16.826;2023-05-19T18:51:06;101933.02;;;15.78;63.52
26436;BME280;15351;52.408;16.826;2023-05-19T18:53:36;101935.20;;;15.76;63.43
26436;BME280;15351;52.408;16.826;2023-05-19T18:56:03;101937.83;;;15.72;63.77
26436;BME280;15351;52.408;16.826;2023-05-19T18:58:31;101944.27;;;15.72;63.68
26436;BME280;15351;52.408;16.826;2023-05-19T19:00:57;101946.55;;;15.71;63.88
26436;BME280;15351;52.408;16.826;2023-05-19T19:03:26;101942.90;;;15.71;64.04
26436;BME280;15351;52.408;16.826;2023-05-19T19:06:15;101945.27;;;15.76;64.15
26436;BME280;15351;52.408;16.826;2023-05-19T19:08:48;101950.46;;;15.78;64.09
26436;BME280;15351;52.408;16.826;2023-05-19T19:11:15;101949.77;;;15.74;64.04
26436;BME280;15351;52.408;16.826;2023-05-19T19:14:02;101947.25;;;15.73;64.14
26436;BME280;15351;52.408;16.826;2023-05-19T19:16:49;101945.61;;;15.74;64.32